Data for 09/06/2017

Time Sea-Level Adjusted Pressure Absolute Pressure Temperature Relative Humidity Dew Point   
(mb) (inHg) (mb) (inHg) (C) (F) (%) (C) (F)
00:05 1025 30.27 854 25.22 13.4 56.2 40 0.3 32.5
00:10 1025 30.27 854 25.22 13.6 56.6 40 0.3 32.6
00:15 1025 30.27 854 25.22 13.7 56.6 40 0.4 32.8
00:20 1025 30.27 854 25.22 13.6 56.5 40 0.4 32.7
00:25 1025 30.27 854 25.22 13.6 56.5 40 0.4 32.7
00:30 1025 30.27 854 25.22 13.5 56.3 40 0.3 32.6
00:35 1025 30.27 854 25.22 13.4 56.2 41 0.4 32.7
00:40 1025 30.27 854 25.22 13.3 56 41 0.4 32.8
00:45 1025 30.27 854 25.22 13.3 55.9 41 0.3 32.6
00:50 1025 30.27 854 25.22 13.3 55.9 41 0.4 32.6
00:55 1025 30.27 854 25.22 13.3 56 40 0.2 32.3
01:00 1025 30.27 854 25.22 13.5 56.2 40 0.2 32.4
01:05 1025 30.27 854 25.22 13.4 56.1 41 0.4 32.7
01:10 1025 30.27 854 25.22 13.2 55.8 41 0.4 32.7
01:15 1025 30.27 854 25.22 13.1 55.6 41 0.3 32.6
01:20 1025 30.27 854 25.22 13 55.4 41 0.2 32.3
01:25 1025 30.27 854 25.22 13.1 55.7 40 0.1 32.2
01:30 1025 30.27 854 25.22 13.2 55.7 41 0.2 32.4
01:35 1025 30.27 854 25.22 13.1 55.5 41 0.2 32.3
01:40 1025 30.27 854 25.22 13 55.3 41 0.2 32.3
01:45 1025 30.27 854 25.22 13 55.4 40 -0.3 31.5
01:50 1025 30.27 854 25.22 13.2 55.7 40 0.1 32.2
01:55 1025 30.27 854 25.22 13 55.4 41 0.1 32.2
02:00 1025 30.27 854 25.22 12.9 55.2 41 0.1 32.1
02:05 1025 30.27 854 25.22 12.9 55.1 40 -0.2 31.7
02:10 1025 30.27 854 25.22 12.8 55.1 41 0.1 32.1
02:15 1025 30.27 854 25.22 12.7 54.9 42 0.1 32.2
02:20 1025 30.27 854 25.22 12.7 54.8 42 0.2 32.3
02:25 1025 30.27 854 25.22 12.5 54.5 43 0.3 32.5
02:30 1025 30.27 854 25.22 12.4 54.2 43 0.2 32.4
02:35 1025 30.27 854 25.22 12.3 54.1 43 0 32
02:40 1025 30.27 854 25.22 12.3 54.1 43 -0 32
02:45 1025 30.27 854 25.22 12.4 54.3 43 0.2 32.3
02:50 1025 30.27 854 25.22 12.4 54.2 42 -0.1 31.8
02:55 1025 30.27 854 25.22 12.5 54.5 41 -0.2 31.7
03:00 1025 30.27 854 25.22 12.6 54.8 41 -0.2 31.7
03:05 1025 30.27 854 25.22 12.8 55 41 -0.1 31.9
03:10 1025 30.27 854 25.22 12.7 54.9 42 0.1 32.1
03:15 1025 30.27 854 25.22 12.5 54.6 42 0.1 32.3
03:20 1025 30.27 854 25.22 12.7 54.8 41 -0.1 31.9
03:25 1025 30.27 854 25.22 12.7 54.9 41 -0.1 31.8
03:30 1025 30.27 854 25.22 12.7 54.8 42 0.2 32.3
03:35 1025 30.27 854 25.22 12.3 54.1 43 0.1 32.1
03:40 1025 30.27 854 25.22 12.2 53.9 43 0.1 32.2
03:45 1025 30.27 854 25.22 12 53.7 44 0.3 32.5
03:50 1025 30.27 854 25.22 11.8 53.2 45 0.3 32.5
03:55 1025 30.27 854 25.22 11.9 53.3 44 0.2 32.3
04:00 1025 30.27 854 25.22 11.8 53.3 45 0.3 32.5
04:05 1025 30.27 854 25.22 11.8 53.2 45 0.4 32.7
04:10 1025 30.27 854 25.22 11.6 52.8 45 0.2 32.4
04:15 1025 30.27 854 25.22 11.4 52.5 46 0.2 32.4
04:20 1025 30.27 854 25.22 11.3 52.3 45 -0.1 31.9
04:25 1025 30.27 854 25.22 11.4 52.5 46 0.2 32.4
04:30 1025 30.27 854 25.22 11.1 52 47 0.2 32.4
04:35 1025 30.27 854 25.22 10.8 51.4 47 0.1 32.2
04:40 1025 30.27 854 25.22 10.9 51.7 46 -0.2 31.7
04:45 1025 30.27 854 25.22 11.4 52.5 45 -0.2 31.7
04:50 1025 30.27 854 25.22 11.4 52.6 45 -0 31.9
04:55 1025 30.27 854 25.22 11.5 52.8 45 0.1 32.2
05:00 1025 30.27 854 25.22 11.3 52.4 46 0.1 32.2
05:05 1025 30.27 854 25.22 11.3 52.3 46 0 32
05:10 1025 30.27 854 25.22 11.3 52.3 45 -0.1 31.9
05:15 1025 30.27 854 25.22 11.2 52.1 45 -0.2 31.6
05:20 1025 30.27 854 25.22 11.5 52.6 44 -0.2 31.7
05:25 1025 30.27 854 25.22 11.3 52.3 45 -0.2 31.7
05:30 1025 30.27 854 25.22 11.2 52.1 45 -0.3 31.4
05:35 1025 30.27 854 25.22 11 51.9 45 -0.5 31.1
05:40 1025 30.27 854 25.22 10.9 51.7 45 -0.4 31.3
05:45 1025 30.27 854 25.22 10.8 51.5 45 -0.5 31.2
05:50 1025 30.27 854 25.22 10.9 51.5 46 -0.2 31.7
05:55 1025 30.27 854 25.22 10.7 51.3 47 -0.1 31.9
06:00 1025 30.27 854 25.22 10.5 51 48 -0.1 31.9
06:05 1025 30.27 854 25.22 10.3 50.5 48 -0.1 31.8
06:10 1025 30.27 854 25.22 10.3 50.5 48 -0.3 31.5
06:15 1025 30.27 854 25.22 10.6 51 47 -0.2 31.6
06:20 1025 30.27 854 25.22 10.6 51.1 47 -0.3 31.5
06:25 1025 30.27 854 25.22 10.8 51.4 45 -0.5 31.2
06:30 1025 30.27 854 25.22 11 51.9 46 -0.2 31.6
06:35 1025 30.27 854 25.22 11.1 51.9 45 -0.4 31.2
06:40 1025 30.27 854 25.22 11.2 52.2 44 -0.4 31.2
06:45 1025 30.27 854 25.22 11.3 52.3 44 -0.4 31.4
06:50 1025 30.27 854 25.22 11.4 52.5 44 -0.3 31.4
06:55 1025 30.27 854 25.22 11.5 52.8 44 -0.4 31.3
07:00 1025 30.27 854 25.22 11.7 53 43 -0.4 31.2
07:05 1025 30.27 854 25.22 12 53.6 42 -0.4 31.3
07:10 1025 30.27 854 25.22 12.2 54 40 -0.9 30.4
07:15 1025 30.27 854 25.22 12.6 54.8 41 -0.1 31.7
07:20 1025 30.27 854 25.22 12.7 54.9 40 -0.6 31
07:25 1025 30.27 854 25.22 12.9 55.2 40 -0.4 31.3
07:30 1025 30.27 854 25.22 13.2 55.8 40 0.2 32.3
07:35 1025 30.27 854 25.22 13.3 55.9 40 0.1 32.1
07:40 1025 30.27 854 25.22 13.5 56.4 40 0.2 32.3
07:45 1025 30.27 854 25.22 14.1 57.3 39 0.3 32.5
07:50 1025 30.27 854 25.22 14.1 57.3 37 -0.2 31.7
07:55 1025 30.27 854 25.22 14.3 57.7 37 -0.1 31.8
08:00 1025 30.27 854 25.22 14.7 58.4 36 -0.3 31.5
08:05 1025 30.27 854 25.22 15.4 59.6 35 0.2 32.3
08:10 1025 30.27 854 25.22 15.8 60.4 35 0.6 33
08:15 1025 30.27 854 25.22 16.2 61.2 33 0.2 32.4
08:20 1025 30.27 854 25.22 16.5 61.6 34 0.8 33.4
08:25 1025 30.27 854 25.22 16.3 61.4 35 1.1 33.9
08:30 1025 30.27 854 25.22 16.2 61.2 35 0.8 33.4
08:35 1025 30.27 854 25.22 16.3 61.3 33 0.2 32.3
08:40 1025 30.27 854 25.22 16.9 62.5 32 0.1 32.2
08:45 1024 30.24 854 25.22 17.5 63.5 30 -0.1 31.8
08:50 1025 30.27 854 25.22 17.9 64.1 29 -0.2 31.7
08:55 1025 30.27 854 25.22 18 64.4 30 0.3 32.5
09:00 1025 30.27 854 25.22 18.2 64.7 31 0.7 33.3
09:05 1025 30.27 854 25.22 18.6 65.5 30 1 33.8
09:10 1025 30.27 854 25.22 18.6 65.6 31 1.3 34.3
09:15 1025 30.27 854 25.22 18.2 64.7 30 0.5 33
09:20 1025 30.27 854 25.22 18.6 65.5 30 0.8 33.4
09:25 1025 30.27 854 25.22 18.6 65.4 30 0.9 33.7
09:30 1025 30.27 854 25.22 18.5 65.3 30 0.6 33.2
09:35 1025 30.27 854 25.22 18.4 65.1 30 0.8 33.4
09:40 1025 30.27 854 25.22 19 66.2 28 0.2 32.4
09:45 1025 30.27 854 25.22 19.1 66.4 29 0.8 33.4
09:50 1025 30.27 854 25.22 19.8 67.6 27 0.6 33.1
09:55 1025 30.27 854 25.22 20.1 68.2 28 1.4 34.5
10:00 1025 30.27 854 25.22 20.1 68.2 29 1.7 35.1
10:05 1025 30.27 854 25.22 20.4 68.8 28 1.4 34.6
10:10 1025 30.27 854 25.22 20.7 69.3 28 1.5 34.7
10:15 1025 30.27 854 25.22 20.7 69.2 26 0.9 33.7
10:20 1025 30.27 854 25.22 20.8 69.5 28 1.9 35.5
10:25 1025 30.27 854 25.22 20.8 69.4 27 1.4 34.6
10:30 1025 30.27 854 25.22 20.9 69.7 26 1.1 34
10:35 1025 30.27 854 25.22 21.1 70 27 1.4 34.6
10:40 1024 30.24 854 25.22 21.3 70.3 26 1.2 34.2
10:45 1024 30.24 854 25.22 21.3 70.3 26 1.1 34
10:50 1024 30.24 854 25.22 21.1 70 26 1.2 34.1
10:55 1024 30.24 853 25.19 21.2 70.1 27 1.4 34.5
11:00 1024 30.24 853 25.19 21.7 71 26 1.3 34.3
11:05 1024 30.24 853 25.19 21.8 71.2 25 1.2 34.1
11:10 1024 30.24 853 25.19 21.9 71.3 25 1.1 34
11:15 1024 30.24 853 25.19 22.2 72 25 1.4 34.5
11:20 1024 30.24 853 25.19 22.5 72.5 24 1.1 34
11:25 1024 30.24 853 25.19 22.6 72.7 25 1.6 34.9
11:30 1024 30.24 853 25.19 22.8 73.1 24 1.6 35
11:35 1024 30.24 853 25.19 22.5 72.4 25 1.7 35.1
11:40 1024 30.24 853 25.19 22.3 72.1 24 1.1 34
11:45 1024 30.24 853 25.19 22.5 72.4 23 0.5 32.9
11:50 1024 30.24 853 25.19 23.1 73.5 22 0.7 33.2
11:55 1024 30.24 853 25.19 23.7 74.6 22 1.1 33.9
12:00 1024 30.24 853 25.19 24.2 75.6 23 2.1 35.7
12:05 1024 30.24 853 25.19 23.8 74.8 23 1.8 35.2
12:10 1024 30.24 853 25.19 23.9 75 23 1.6 34.9
12:15 1024 30.24 853 25.19 23.3 73.9 24 1.7 35
12:20 1023 30.21 853 25.19 23.2 73.7 25 2.4 36.3
12:25 1023 30.21 853 25.19 23.7 74.6 23 1.5 34.7
12:30 1023 30.21 853 25.19 23.9 75.1 23 1.7 35.1
12:35 1023 30.21 853 25.19 24 75.1 24 2.1 35.8
12:40 1023 30.21 853 25.19 23.8 74.9 23 1.9 35.4
12:45 1023 30.21 853 25.19 23.7 74.7 22 0.7 33.3
12:50 1023 30.21 853 25.19 24 75.3 22 0.9 33.7
12:55 1023 30.21 853 25.19 24.8 76.6 22 1.7 35
13:00 1023 30.21 853 25.19 24.1 75.4 22 1.4 34.6
13:05 1023 30.21 853 25.19 24.5 76.1 21 1.3 34.3
13:10 1023 30.21 852 25.16 24.4 75.9 21 0.9 33.6
13:15 1023 30.21 852 25.16 24.9 76.8 20 0.5 33
13:20 1023 30.21 852 25.16 25.5 77.9 19 0.1 32.2
13:25 1023 30.21 852 25.16 24.9 76.9 20 0.5 32.9
13:30 1023 30.21 852 25.16 25.8 78.4 18 0.2 32.3
13:35 1023 30.21 852 25.16 26.3 79.3 18 0.3 32.5
13:40 1023 30.21 852 25.16 26.2 79.2 18 0.4 32.8
13:45 1023 30.21 852 25.16 26 78.8 18 -0.2 31.6
13:50 1023 30.21 852 25.16 26.1 79 15 -2.1 28.2
13:55 1023 30.21 852 25.16 26.5 79.7 17 0.1 32.2
14:00 1023 30.21 852 25.16 26.8 80.2 17 0.1 32.2
14:05 1023 30.21 852 25.16 26.9 80.4 15 -1.4 29.5
14:10 1023 30.21 852 25.16 26.3 79.4 15 -2.3 27.9
14:15 1023 30.21 852 25.16 26.8 80.2 17 0.2 32.4
14:20 1023 30.21 852 25.16 27 80.5 18 0.6 33.1
14:25 1023 30.21 852 25.16 27.3 81.1 16 -0.3 31.4
14:30 1023 30.21 852 25.16 26.9 80.5 17 0 32.1
14:35 1023 30.21 852 25.16 26.6 79.8 17 -0 31.9
14:40 1022 30.18 852 25.16 26.6 79.8 19 1.1 34
14:45 1022 30.18 852 25.16 26.7 80 15 -1.6 29.2
14:50 1022 30.18 852 25.16 26.7 80.1 15 -2 28.3
14:55 1022 30.18 852 25.16 26.6 79.9 16 -1.3 29.6
15:00 1022 30.18 852 25.16 26.7 80 17 -0.4 31.2
15:05 1022 30.18 852 25.16 26.4 79.6 16 -1 30.2
15:10 1022 30.18 851 25.13 26.7 80 18 0.3 32.5
15:15 1022 30.18 851 25.13 26.9 80.5 17 -0 31.9
15:20 1022 30.18 851 25.13 27.1 80.8 15 -1.1 30.1
15:25 1022 30.18 851 25.13 27.3 81.2 15 -1.2 29.8
15:30 1022 30.18 851 25.13 27.1 80.8 15 -1.8 28.8
15:35 1022 30.18 851 25.13 27.2 80.9 15 -1.5 29.3
15:40 1022 30.18 851 25.13 27.1 80.8 15 -1.9 28.6
15:45 1022 30.18 851 25.13 27 80.6 15 -1.7 29
15:50 1022 30.18 851 25.13 26.9 80.4 15 -1.5 29.3
15:55 1022 30.18 851 25.13 26.8 80.3 15 -1.8 28.7
16:00 1022 30.18 851 25.13 26.6 79.9 15 -2.2 28
16:05 1022 30.18 851 25.13 26.1 79 15 -2 28.3
16:10 1022 30.18 851 25.13 26.4 79.5 15 -1.9 28.7
16:15 1022 30.18 851 25.13 26.4 79.4 16 -1.4 29.5
16:20 1022 30.18 851 25.13 26.9 80.4 15 -1.6 29.1
16:25 1022 30.18 851 25.13 26.9 80.5 15 -1.3 29.6
16:30 1022 30.18 851 25.13 27 80.6 14 -2.2 28
16:35 1022 30.18 851 25.13 27 80.6 14 -2.3 27.8
16:40 1022 30.18 851 25.13 27 80.7 14 -2.2 28
16:45 1022 30.18 851 25.13 27 80.6 15 -1.5 29.4
16:50 1022 30.18 851 25.13 26.9 80.3 15 -1.9 28.5
16:55 1022 30.18 851 25.13 26.6 79.9 14 -2.8 26.9
17:00 1022 30.18 851 25.13 26.4 79.6 15 -2.3 27.9
17:05 1022 30.18 851 25.13 26.5 79.7 14 -2.6 27.2
17:10 1022 30.18 851 25.13 26.5 79.7 15 -2.4 27.7
17:15 1022 30.18 851 25.13 26.3 79.4 15 -2.1 28.1
17:20 1022 30.18 851 25.13 26 78.9 17 -0.7 30.8
17:25 1021 30.15 851 25.13 25.9 78.6 19 0.9 33.6
17:30 1021 30.15 851 25.13 25.7 78.3 17 -1 30.2
17:35 1021 30.15 851 25.13 25.5 77.8 17 -0.9 30.4
17:40 1021 30.15 851 25.13 25.3 77.5 18 -0.8 30.5
17:45 1021 30.15 851 25.13 25.1 77.2 19 0 32
17:50 1021 30.15 851 25.13 25 77 18 -0.4 31.2
17:55 1021 30.15 851 25.13 24.8 76.7 18 -0.9 30.4
18:00 1021 30.15 851 25.13 24.8 76.6 17 -1.7 28.9
18:05 1021 30.15 851 25.13 24.7 76.4 18 -1 30.3
18:10 1021 30.15 851 25.13 24.5 76.2 20 0.1 32.2
18:15 1021 30.15 851 25.13 24.4 75.9 19 -0.6 31
18:20 1021 30.15 851 25.13 24.2 75.6 21 0.9 33.6
18:25 1021 30.15 851 25.13 24 75.2 23 1.7 35
18:30 1021 30.15 851 25.13 23.5 74.2 25 2.7 36.8
18:35 1021 30.15 851 25.13 22.7 72.9 29 3.8 38.9
18:40 1021 30.15 851 25.13 22.2 72 31 4.6 40.4
18:45 1021 30.15 851 25.13 21.9 71.4 34 5.6 42
18:50 1021 30.15 851 25.13 21.3 70.3 34 4.8 40.6
18:55 1021 30.15 851 25.13 20.8 69.4 34 4.5 40.1
19:00 1021 30.15 851 25.13 20.3 68.6 32 3.3 37.9
19:05 1021 30.15 851 25.13 20 68 28 1.4 34.4
19:10 1021 30.15 851 25.13 19.8 67.7 27 0.5 32.9
19:15 1021 30.15 851 25.13 19.7 67.4 27 0.2 32.3
19:20 1022 30.18 851 25.13 19.5 67.1 27 0.1 32.2
19:25 1022 30.18 851 25.13 19.2 66.5 27 0.1 32.2
19:30 1022 30.18 851 25.13 18.8 65.8 29 0.5 32.9
19:35 1022 30.18 851 25.13 18.2 64.8 36 2.9 37.2
19:40 1022 30.18 851 25.13 17.7 63.9 26 -1.9 28.5
19:45 1022 30.18 851 25.13 18.7 65.6 23 -2.9 26.8
19:50 1022 30.18 851 25.13 19.1 66.4 23 -2.7 27.2
19:55 1022 30.18 851 25.13 18.8 65.8 23 -2.5 27.5
20:00 1022 30.18 851 25.13 18.5 65.3 27 -0.6 31
20:05 1022 30.18 851 25.13 17.8 64 25 -2.5 27.5
20:10 1022 30.18 851 25.13 18.3 65 24 -2.3 27.8
20:15 1022 30.18 851 25.13 18.5 65.3 24 -2 28.3
20:20 1022 30.18 851 25.13 18.1 64.6 24 -2.5 27.6
20:25 1022 30.18 851 25.13 17.9 64.2 24 -2.9 26.9
20:30 1022 30.18 851 25.13 17.8 64.1 23 -3.6 25.4
20:35 1022 30.18 851 25.13 17.8 64 23 -3.7 25.3
20:40 1022 30.18 851 25.13 17.5 63.5 23 -3.9 25
20:45 1022 30.18 851 25.13 17.3 63.2 22 -4.4 24.1
20:50 1022 30.18 851 25.13 17.8 64.1 21 -4.5 23.8
20:55 1022 30.18 851 25.13 17.9 64.2 22 -3.8 25.2
21:00 1022 30.18 851 25.13 17.6 63.6 23 -3.5 25.8
21:05 1022 30.18 851 25.13 17.4 63.3 24 -3.1 26.5
21:10 1022 30.18 851 25.13 17.1 62.8 24 -3.6 25.6
21:15 1022 30.18 851 25.13 17 62.6 23 -4 24.7
21:20 1022 30.18 851 25.13 17.1 62.9 23 -4.2 24.5
21:25 1022 30.18 851 25.13 17.3 63.2 21 -4.9 23.1
21:30 1022 30.18 851 25.13 17.5 63.5 21 -4.9 23.1
21:35 1022 30.18 851 25.13 17.7 63.9 21 -5 23
21:40 1022 30.18 851 25.13 17.8 64.1 21 -4.5 23.8
21:45 1022 30.18 851 25.13 17.5 63.4 22 -4.1 24.6
21:50 1022 30.18 851 25.13 17.1 62.9 22 -4.5 23.9
21:55 1022 30.18 851 25.13 17.2 63 23 -3.9 25
22:00 1022 30.18 851 25.13 17.1 62.7 23 -4.3 24.2
22:05 1022 30.18 851 25.13 17.4 63.3 22 -4.3 24.2
22:10 1022 30.18 851 25.13 17.2 62.9 23 -4.2 24.5
22:15 1022 30.18 851 25.13 16.6 61.8 25 -3.6 25.5
22:20 1022 30.18 851 25.13 16.2 61.2 23 -4.7 23.6
22:25 1022 30.18 851 25.13 16.8 62.2 23 -4.6 23.7
22:30 1022 30.18 851 25.13 17 62.6 22 -4.5 23.9
22:35 1022 30.18 851 25.13 16.7 62 24 -4.1 24.7
22:40 1022 30.18 851 25.13 16.5 61.6 23 -4.6 23.8
22:45 1022 30.18 851 25.13 16.8 62.3 22 -4.9 23.1
22:50 1022 30.18 851 25.13 17.1 62.8 22 -4.4 24
22:55 1022 30.18 851 25.13 16.9 62.5 23 -4.3 24.3
23:00 1022 30.18 851 25.13 16.8 62.2 23 -4.4 24.1
23:05 1022 30.18 851 25.13 16.8 62.2 23 -4.2 24.5
23:10 1022 30.18 851 25.13 16.9 62.4 23 -4.1 24.6
23:15 1022 30.18 851 25.13 16.9 62.4 23 -4.3 24.3
23:20 1022 30.18 851 25.13 17 62.6 23 -4 24.8
23:25 1022 30.18 851 25.13 17 62.6 23 -4 24.8
23:30 1022 30.18 851 25.13 17 62.6 23 -3.9 24.9
23:35 1022 30.18 851 25.13 16.9 62.4 23 -4.1 24.7
23:40 1022 30.18 851 25.13 16.9 62.5 24 -3.8 25.1
23:45 1022 30.18 851 25.13 16.7 62.1 24 -4 24.8
23:50 1022 30.18 851 25.13 16.7 62.1 24 -4.1 24.7
23:55 1022 30.18 851 25.13 16.9 62.3 22 -4.8 23.4
24:00 1022 30.18 851 25.13 16.8 62.2 23 -4.1 24.7